sensor_id;sensor_type;location;lat;lon;timestamp;temperature;humidity
22379;DHT22;11357;49.990;7.370;2023-11-21T00:02:20;12.30;94.70
22379;DHT22;11357;49.990;7.370;2023-11-21T00:04:47;12.30;94.70
22379;DHT22;11357;49.990;7.370;2023-11-21T00:07:13;12.30;95.00
22379;DHT22;11357;49.990;7.370;2023-11-21T00:09:40;12.30;94.70
22379;DHT22;11357;49.990;7.370;2023-11-21T00:12:07;12.30;94.70
22379;DHT22;11357;49.990;7.370;2023-11-21T00:14:38;12.30;94.70
22379;DHT22;11357;49.990;7.370;2023-11-21T00:17:04;12.30;94.70
22379;DHT22;11357;49.990;7.370;2023-11-21T00:19:31;12.20;94.70
22379;DHT22;11357;49.990;7.370;2023-11-21T00:21:56;12.20;94.80
22379;DHT22;11357;49.990;7.370;2023-11-21T00:24:23;12.20;94.90
22379;DHT22;11357;49.990;7.370;2023-11-21T00:26:50;12.20;94.90
22379;DHT22;11357;49.990;7.370;2023-11-21T00:29:16;12.20;94.90
22379;DHT22;11357;49.990;7.370;2023-11-21T00:31:43;12.30;94.90
22379;DHT22;11357;49.990;7.370;2023-11-21T00:34:12;12.30;94.90
22379;DHT22;11357;49.990;7.370;2023-11-21T00:36:38;12.20;94.90
22379;DHT22;11357;49.990;7.370;2023-11-21T00:39:03;12.30;94.90
22379;DHT22;11357;49.990;7.370;2023-11-21T00:41:31;12.20;94.90
22379;DHT22;11357;49.990;7.370;2023-11-21T00:43:57;12.20;94.90
22379;DHT22;11357;49.990;7.370;2023-11-21T00:46:24;12.10;95.00
22379;DHT22;11357;49.990;7.370;2023-11-21T00:48:52;12.10;95.10
22379;DHT22;11357;49.990;7.370;2023-11-21T00:51:19;12.10;95.10
22379;DHT22;11357;49.990;7.370;2023-11-21T00:53:45;12.00;95.20
22379;DHT22;11357;49.990;7.370;2023-11-21T00:56:12;12.10;95.20
22379;DHT22;11357;49.990;7.370;2023-11-21T00:58:39;12.10;95.20
22379;DHT22;11357;49.990;7.370;2023-11-21T01:01:04;12.10;95.30
22379;DHT22;11357;49.990;7.370;2023-11-21T01:03:30;12.10;95.30
22379;DHT22;11357;49.990;7.370;2023-11-21T01:05:56;12.10;95.30
22379;DHT22;11357;49.990;7.370;2023-11-21T01:08:21;12.10;95.30
22379;DHT22;11357;49.990;7.370;2023-11-21T01:10:49;12.00;95.40
22379;DHT22;11357;49.990;7.370;2023-11-21T01:13:15;12.00;95.40
22379;DHT22;11357;49.990;7.370;2023-11-21T01:15:40;11.90;95.40
22379;DHT22;11357;49.990;7.370;2023-11-21T01:18:07;11.90;95.50
22379;DHT22;11357;49.990;7.370;2023-11-21T01:20:34;11.80;95.50
22379;DHT22;11357;49.990;7.370;2023-11-21T01:23:00;11.80;95.60
22379;DHT22;11357;49.990;7.370;2023-11-21T01:25:25;11.70;95.60
22379;DHT22;11357;49.990;7.370;2023-11-21T01:27:51;11.70;95.60
22379;DHT22;11357;49.990;7.370;2023-11-21T01:30:18;11.70;95.60
22379;DHT22;11357;49.990;7.370;2023-11-21T01:32:44;11.60;95.60
22379;DHT22;11357;49.990;7.370;2023-11-21T01:35:10;11.60;95.50
22379;DHT22;11357;49.990;7.370;2023-11-21T01:37:36;11.50;95.50
22379;DHT22;11357;49.990;7.370;2023-11-21T01:40:03;11.50;95.50
22379;DHT22;11357;49.990;7.370;2023-11-21T01:42:31;11.40;95.40
22379;DHT22;11357;49.990;7.370;2023-11-21T01:44:57;11.40;95.40
22379;DHT22;11357;49.990;7.370;2023-11-21T01:47:22;11.40;95.40
22379;DHT22;11357;49.990;7.370;2023-11-21T01:49:48;11.40;95.40
22379;DHT22;11357;49.990;7.370;2023-11-21T01:52:14;11.40;95.40
22379;DHT22;11357;49.990;7.370;2023-11-21T01:54:41;11.40;95.40
22379;DHT22;11357;49.990;7.370;2023-11-21T01:57:07;11.40;95.40
22379;DHT22;11357;49.990;7.370;2023-11-21T01:59:37;11.30;95.30
22379;DHT22;11357;49.990;7.370;2023-11-21T02:02:04;11.30;95.40
22379;DHT22;11357;49.990;7.370;2023-11-21T02:04:33;11.20;95.40
22379;DHT22;11357;49.990;7.370;2023-11-21T02:07:00;11.20;95.50
22379;DHT22;11357;49.990;7.370;2023-11-21T02:09:27;11.10;95.50
22379;DHT22;11357;49.990;7.370;2023-11-21T02:11:56;11.10;95.60
22379;DHT22;11357;49.990;7.370;2023-11-21T02:14:21;11.10;95.50
22379;DHT22;11357;49.990;7.370;2023-11-21T02:16:49;11.10;95.60
22379;DHT22;11357;49.990;7.370;2023-11-21T02:19:18;11.00;95.70
22379;DHT22;11357;49.990;7.370;2023-11-21T02:21:45;11.00;95.70
22379;DHT22;11357;49.990;7.370;2023-11-21T02:24:13;11.10;95.70
22379;DHT22;11357;49.990;7.370;2023-11-21T02:26:39;11.10;95.70
22379;DHT22;11357;49.990;7.370;2023-11-21T02:29:04;11.10;95.70
22379;DHT22;11357;49.990;7.370;2023-11-21T02:31:30;11.10;95.70
22379;DHT22;11357;49.990;7.370;2023-11-21T02:33:58;11.10;95.70
22379;DHT22;11357;49.990;7.370;2023-11-21T02:36:24;11.10;95.80
22379;DHT22;11357;49.990;7.370;2023-11-21T02:38:49;11.10;95.80
22379;DHT22;11357;49.990;7.370;2023-11-21T02:41:15;11.00;95.90
22379;DHT22;11357;49.990;7.370;2023-11-21T02:43:41;11.00;95.90
22379;DHT22;11357;49.990;7.370;2023-11-21T02:46:08;11.00;95.90
22379;DHT22;11357;49.990;7.370;2023-11-21T02:48:34;11.00;95.90
22379;DHT22;11357;49.990;7.370;2023-11-21T02:50:59;11.00;95.90
22379;DHT22;11357;49.990;7.370;2023-11-21T02:53:25;11.00;95.90
22379;DHT22;11357;49.990;7.370;2023-11-21T02:55:51;11.00;95.90
22379;DHT22;11357;49.990;7.370;2023-11-21T02:58:17;11.00;95.90
22379;DHT22;11357;49.990;7.370;2023-11-21T03:00:43;11.00;95.90
22379;DHT22;11357;49.990;7.370;2023-11-21T03:03:08;11.00;95.90
22379;DHT22;11357;49.990;7.370;2023-11-21T03:05:34;11.00;95.90
22379;DHT22;11357;49.990;7.370;2023-11-21T03:08:01;11.00;95.90
22379;DHT22;11357;49.990;7.370;2023-11-21T03:10:26;11.00;95.90
22379;DHT22;11357;49.990;7.370;2023-11-21T03:12:52;11.00;95.90
22379;DHT22;11357;49.990;7.370;2023-11-21T03:15:18;11.00;95.90
22379;DHT22;11357;49.990;7.370;2023-11-21T03:17:44;11.00;96.00
22379;DHT22;11357;49.990;7.370;2023-11-21T03:20:10;11.00;96.00
22379;DHT22;11357;49.990;7.370;2023-11-21T03:22:36;11.00;96.00
22379;DHT22;11357;49.990;7.370;2023-11-21T03:25:03;11.00;96.00
22379;DHT22;11357;49.990;7.370;2023-11-21T03:27:30;11.00;95.90
22379;DHT22;11357;49.990;7.370;2023-11-21T03:29:56;11.00;95.90
22379;DHT22;11357;49.990;7.370;2023-11-21T03:32:21;11.00;95.90
22379;DHT22;11357;49.990;7.370;2023-11-21T03:34:57;11.00;96.00
22379;DHT22;11357;49.990;7.370;2023-11-21T03:37:23;11.00;96.00
22379;DHT22;11357;49.990;7.370;2023-11-21T03:39:50;11.00;95.90
22379;DHT22;11357;49.990;7.370;2023-11-21T03:42:16;11.00;95.90
22379;DHT22;11357;49.990;7.370;2023-11-21T03:44:41;11.00;95.90
22379;DHT22;11357;49.990;7.370;2023-11-21T03:47:07;11.00;95.90
22379;DHT22;11357;49.990;7.370;2023-11-21T03:49:33;10.90;95.90
22379;DHT22;11357;49.990;7.370;2023-11-21T03:51:59;10.90;96.00
22379;DHT22;11357;49.990;7.370;2023-11-21T03:54:24;10.90;95.90
22379;DHT22;11357;49.990;7.370;2023-11-21T03:56:50;10.90;95.90
22379;DHT22;11357;49.990;7.370;2023-11-21T03:59:17;10.90;95.90
22379;DHT22;11357;49.990;7.370;2023-11-21T04:01:43;10.90;95.90
22379;DHT22;11357;49.990;7.370;2023-11-21T04:04:08;10.90;95.80
22379;DHT22;11357;49.990;7.370;2023-11-21T04:06:34;10.90;95.80
22379;DHT22;11357;49.990;7.370;2023-11-21T04:09:01;10.90;95.80
22379;DHT22;11357;49.990;7.370;2023-11-21T04:11:26;10.90;95.80
22379;DHT22;11357;49.990;7.370;2023-11-21T04:13:55;10.90;95.70
22379;DHT22;11357;49.990;7.370;2023-11-21T04:16:21;10.90;95.70
22379;DHT22;11357;49.990;7.370;2023-11-21T04:18:46;10.90;95.70
22379;DHT22;11357;49.990;7.370;2023-11-21T04:21:12;10.90;95.60
22379;DHT22;11357;49.990;7.370;2023-11-21T04:23:37;10.90;95.60
22379;DHT22;11357;49.990;7.370;2023-11-21T04:26:03;10.90;95.60
22379;DHT22;11357;49.990;7.370;2023-11-21T04:28:29;10.90;95.60
22379;DHT22;11357;49.990;7.370;2023-11-21T04:30:54;10.90;95.60
22379;DHT22;11357;49.990;7.370;2023-11-21T04:33:20;10.80;95.60
22379;DHT22;11357;49.990;7.370;2023-11-21T04:35:47;10.90;95.60
22379;DHT22;11357;49.990;7.370;2023-11-21T04:38:12;10.90;95.60
22379;DHT22;11357;49.990;7.370;2023-11-21T04:40:38;10.90;95.50
22379;DHT22;11357;49.990;7.370;2023-11-21T04:43:04;10.90;95.60
22379;DHT22;11357;49.990;7.370;2023-11-21T04:45:29;10.80;95.60
22379;DHT22;11357;49.990;7.370;2023-11-21T04:47:55;10.80;95.60
22379;DHT22;11357;49.990;7.370;2023-11-21T04:50:21;10.80;95.60
22379;DHT22;11357;49.990;7.370;2023-11-21T04:52:47;10.80;95.60
22379;DHT22;11357;49.990;7.370;2023-11-21T04:55:13;10.90;95.60
22379;DHT22;11357;49.990;7.370;2023-11-21T04:57:39;10.90;95.60
22379;DHT22;11357;49.990;7.370;2023-11-21T05:00:08;10.80;95.70
22379;DHT22;11357;49.990;7.370;2023-11-21T05:02:34;10.80;95.60
22379;DHT22;11357;49.990;7.370;2023-11-21T05:05:00;10.80;95.60
22379;DHT22;11357;49.990;7.370;2023-11-21T05:07:26;10.90;95.60
22379;DHT22;11357;49.990;7.370;2023-11-21T05:09:55;10.90;95.60
22379;DHT22;11357;49.990;7.370;2023-11-21T05:12:22;10.90;95.60
22379;DHT22;11357;49.990;7.370;2023-11-21T05:14:53;10.90;95.60
22379;DHT22;11357;49.990;7.370;2023-11-21T05:17:19;10.90;95.50
22379;DHT22;11357;49.990;7.370;2023-11-21T05:19:45;10.90;95.50
22379;DHT22;11357;49.990;7.370;2023-11-21T05:22:13;10.90;95.50
22379;DHT22;11357;49.990;7.370;2023-11-21T05:24:39;10.90;95.50
22379;DHT22;11357;49.990;7.370;2023-11-21T05:27:05;10.80;95.50
22379;DHT22;11357;49.990;7.370;2023-11-21T05:29:31;10.80;95.50
22379;DHT22;11357;49.990;7.370;2023-11-21T05:31:56;10.80;95.60
22379;DHT22;11357;49.990;7.370;2023-11-21T05:34:22;10.80;95.60
22379;DHT22;11357;49.990;7.370;2023-11-21T05:36:50;10.80;95.50
22379;DHT22;11357;49.990;7.370;2023-11-21T05:39:15;10.80;95.50
22379;DHT22;11357;49.990;7.370;2023-11-21T05:41:43;10.90;95.50
22379;DHT22;11357;49.990;7.370;2023-11-21T05:44:08;10.90;95.50
22379;DHT22;11357;49.990;7.370;2023-11-21T05:46:34;10.90;95.50
22379;DHT22;11357;49.990;7.370;2023-11-21T05:49:00;10.90;95.50
22379;DHT22;11357;49.990;7.370;2023-11-21T05:51:26;10.90;95.50
22379;DHT22;11357;49.990;7.370;2023-11-21T05:53:51;10.80;95.50
22379;DHT22;11357;49.990;7.370;2023-11-21T05:56:18;10.80;95.50
22379;DHT22;11357;49.990;7.370;2023-11-21T05:58:44;10.80;95.50
22379;DHT22;11357;49.990;7.370;2023-11-21T06:01:09;10.80;95.50
22379;DHT22;11357;49.990;7.370;2023-11-21T06:03:38;10.80;95.50
22379;DHT22;11357;49.990;7.370;2023-11-21T06:06:04;10.80;95.50
22379;DHT22;11357;49.990;7.370;2023-11-21T06:08:30;10.90;95.50
22379;DHT22;11357;49.990;7.370;2023-11-21T06:10:56;10.90;95.50
22379;DHT22;11357;49.990;7.370;2023-11-21T06:13:21;11.00;95.40
22379;DHT22;11357;49.990;7.370;2023-11-21T06:15:50;10.90;95.40
22379;DHT22;11357;49.990;7.370;2023-11-21T06:18:16;10.90;95.40
22379;DHT22;11357;49.990;7.370;2023-11-21T06:20:47;11.00;95.40
22379;DHT22;11357;49.990;7.370;2023-11-21T06:23:13;11.00;95.40
22379;DHT22;11357;49.990;7.370;2023-11-21T06:25:39;11.00;95.40
22379;DHT22;11357;49.990;7.370;2023-11-21T06:28:06;10.90;95.30
22379;DHT22;11357;49.990;7.370;2023-11-21T06:30:31;10.90;95.30
22379;DHT22;11357;49.990;7.370;2023-11-21T06:32:57;10.80;95.30
22379;DHT22;11357;49.990;7.370;2023-11-21T06:35:23;10.90;95.40
22379;DHT22;11357;49.990;7.370;2023-11-21T06:37:48;10.90;95.30
22379;DHT22;11357;49.990;7.370;2023-11-21T06:40:15;10.90;95.30
22379;DHT22;11357;49.990;7.370;2023-11-21T06:42:41;10.80;95.30
22379;DHT22;11357;49.990;7.370;2023-11-21T06:45:07;10.80;95.30
22379;DHT22;11357;49.990;7.370;2023-11-21T06:47:33;10.80;95.30
22379;DHT22;11357;49.990;7.370;2023-11-21T06:49:59;10.80;95.30
22379;DHT22;11357;49.990;7.370;2023-11-21T06:52:26;10.80;95.30
22379;DHT22;11357;49.990;7.370;2023-11-21T06:54:51;10.80;95.30
22379;DHT22;11357;49.990;7.370;2023-11-21T06:57:17;10.90;95.30
22379;DHT22;11357;49.990;7.370;2023-11-21T06:59:44;10.90;95.20
22379;DHT22;11357;49.990;7.370;2023-11-21T07:02:09;10.90;95.10
22379;DHT22;11357;49.990;7.370;2023-11-21T07:04:38;10.90;95.10
22379;DHT22;11357;49.990;7.370;2023-11-21T07:07:04;10.90;95.20
22379;DHT22;11357;49.990;7.370;2023-11-21T07:09:32;10.90;95.20
22379;DHT22;11357;49.990;7.370;2023-11-21T07:11:58;10.90;95.20
22379;DHT22;11357;49.990;7.370;2023-11-21T07:14:23;10.90;95.50
22379;DHT22;11357;49.990;7.370;2023-11-21T07:16:49;10.90;95.20
22379;DHT22;11357;49.990;7.370;2023-11-21T07:19:16;10.90;95.40
22379;DHT22;11357;49.990;7.370;2023-11-21T07:21:42;10.90;95.10
22379;DHT22;11357;49.990;7.370;2023-11-21T07:24:08;10.90;95.20
22379;DHT22;11357;49.990;7.370;2023-11-21T07:26:35;10.90;95.20
22379;DHT22;11357;49.990;7.370;2023-11-21T07:29:01;10.90;95.30
22379;DHT22;11357;49.990;7.370;2023-11-21T07:31:28;10.80;95.30
22379;DHT22;11357;49.990;7.370;2023-11-21T07:33:54;10.80;95.40
22379;DHT22;11357;49.990;7.370;2023-11-21T07:36:23;10.70;95.40
22379;DHT22;11357;49.990;7.370;2023-11-21T07:38:49;10.70;95.40
22379;DHT22;11357;49.990;7.370;2023-11-21T07:41:15;10.70;95.40
22379;DHT22;11357;49.990;7.370;2023-11-21T07:43:41;10.70;95.50
22379;DHT22;11357;49.990;7.370;2023-11-21T07:46:07;10.80;95.60
22379;DHT22;11357;49.990;7.370;2023-11-21T07:48:36;10.80;95.50
22379;DHT22;11357;49.990;7.370;2023-11-21T07:51:02;10.80;95.50
22379;DHT22;11357;49.990;7.370;2023-11-21T07:53:38;10.80;95.50
22379;DHT22;11357;49.990;7.370;2023-11-21T07:56:08;10.80;95.50
22379;DHT22;11357;49.990;7.370;2023-11-21T07:58:38;10.80;95.50
22379;DHT22;11357;49.990;7.370;2023-11-21T08:01:04;10.90;95.50
22379;DHT22;11357;49.990;7.370;2023-11-21T08:03:30;10.90;95.50
22379;DHT22;11357;49.990;7.370;2023-11-21T08:05:57;10.90;95.40
22379;DHT22;11357;49.990;7.370;2023-11-21T08:08:23;10.90;95.40
22379;DHT22;11357;49.990;7.370;2023-11-21T08:10:49;11.00;95.40
22379;DHT22;11357;49.990;7.370;2023-11-21T08:13:22;11.00;95.40
22379;DHT22;11357;49.990;7.370;2023-11-21T08:15:48;11.00;95.40
22379;DHT22;11357;49.990;7.370;2023-11-21T08:18:14;11.00;95.40
22379;DHT22;11357;49.990;7.370;2023-11-21T08:20:40;11.00;95.40
22379;DHT22;11357;49.990;7.370;2023-11-21T08:23:06;11.00;95.40
22379;DHT22;11357;49.990;7.370;2023-11-21T08:25:32;11.00;95.40
22379;DHT22;11357;49.990;7.370;2023-11-21T08:28:00;11.00;95.30
22379;DHT22;11357;49.990;7.370;2023-11-21T08:30:25;11.00;95.40
22379;DHT22;11357;49.990;7.370;2023-11-21T08:32:54;11.00;95.40
22379;DHT22;11357;49.990;7.370;2023-11-21T08:35:26;11.00;95.40
22379;DHT22;11357;49.990;7.370;2023-11-21T08:37:52;11.00;95.40
22379;DHT22;11357;49.990;7.370;2023-11-21T08:40:20;11.00;95.40
22379;DHT22;11357;49.990;7.370;2023-11-21T08:42:47;11.00;95.40
22379;DHT22;11357;49.990;7.370;2023-11-21T08:45:14;11.00;95.40
22379;DHT22;11357;49.990;7.370;2023-11-21T08:47:40;11.00;95.40
22379;DHT22;11357;49.990;7.370;2023-11-21T08:50:06;11.10;95.30
22379;DHT22;11357;49.990;7.370;2023-11-21T08:52:33;11.10;95.30
22379;DHT22;11357;49.990;7.370;2023-11-21T08:54:59;11.20;95.30
22379;DHT22;11357;49.990;7.370;2023-11-21T08:57:28;11.20;95.20
22379;DHT22;11357;49.990;7.370;2023-11-21T08:59:55;11.20;95.20
22379;DHT22;11357;49.990;7.370;2023-11-21T09:02:26;11.30;95.20
22379;DHT22;11357;49.990;7.370;2023-11-21T09:04:52;11.20;95.10
22379;DHT22;11357;49.990;7.370;2023-11-21T09:07:19;11.20;95.10
22379;DHT22;11357;49.990;7.370;2023-11-21T09:09:46;11.20;95.10
22379;DHT22;11357;49.990;7.370;2023-11-21T09:12:13;11.20;95.10
22379;DHT22;11357;49.990;7.370;2023-11-21T09:14:38;11.30;95.10
22379;DHT22;11357;49.990;7.370;2023-11-21T09:17:05;11.30;95.00
22379;DHT22;11357;49.990;7.370;2023-11-21T09:19:40;11.40;95.00
22379;DHT22;11357;49.990;7.370;2023-11-21T09:22:06;11.50;95.00
22379;DHT22;11357;49.990;7.370;2023-11-21T09:24:32;11.50;94.80
22379;DHT22;11357;49.990;7.370;2023-11-21T09:26:58;11.50;94.80
22379;DHT22;11357;49.990;7.370;2023-11-21T09:29:28;11.60;94.80
22379;DHT22;11357;49.990;7.370;2023-11-21T09:31:54;11.60;94.80
22379;DHT22;11357;49.990;7.370;2023-11-21T09:34:21;11.50;94.70
22379;DHT22;11357;49.990;7.370;2023-11-21T09:36:47;11.50;94.70
22379;DHT22;11357;49.990;7.370;2023-11-21T09:39:13;11.50;94.80
22379;DHT22;11357;49.990;7.370;2023-11-21T09:41:49;11.60;94.70
22379;DHT22;11357;49.990;7.370;2023-11-21T09:44:18;11.60;94.70
22379;DHT22;11357;49.990;7.370;2023-11-21T09:46:47;11.60;94.70
22379;DHT22;11357;49.990;7.370;2023-11-21T09:49:18;11.50;94.60
22379;DHT22;11357;49.990;7.370;2023-11-21T09:51:47;11.50;94.60
22379;DHT22;11357;49.990;7.370;2023-11-21T09:54:15;11.50;94.70
22379;DHT22;11357;49.990;7.370;2023-11-21T09:56:43;11.50;94.70
22379;DHT22;11357;49.990;7.370;2023-11-21T09:59:14;11.50;94.80
22379;DHT22;11357;49.990;7.370;2023-11-21T10:01:41;11.50;94.80
22379;DHT22;11357;49.990;7.370;2023-11-21T10:04:11;11.50;94.70
22379;DHT22;11357;49.990;7.370;2023-11-21T10:06:39;11.50;94.70
22379;DHT22;11357;49.990;7.370;2023-11-21T10:09:09;11.50;94.60
22379;DHT22;11357;49.990;7.370;2023-11-21T10:11:43;11.40;94.60
22379;DHT22;11357;49.990;7.370;2023-11-21T10:14:11;11.50;94.70
22379;DHT22;11357;49.990;7.370;2023-11-21T10:16:38;11.50;94.60
22379;DHT22;11357;49.990;7.370;2023-11-21T10:19:05;11.50;94.50
22379;DHT22;11357;49.990;7.370;2023-11-21T10:21:33;11.50;94.50
22379;DHT22;11357;49.990;7.370;2023-11-21T10:23:59;11.50;94.60
22379;DHT22;11357;49.990;7.370;2023-11-21T10:26:29;11.60;94.60
22379;DHT22;11357;49.990;7.370;2023-11-21T10:29:01;11.50;94.50
22379;DHT22;11357;49.990;7.370;2023-11-21T10:31:30;11.50;94.50
22379;DHT22;11357;49.990;7.370;2023-11-21T10:34:17;11.60;94.50
22379;DHT22;11357;49.990;7.370;2023-11-21T11:32:24;12.20;93.70
22379;DHT22;11357;49.990;7.370;2023-11-21T11:35:10;12.20;93.70
22379;DHT22;11357;49.990;7.370;2023-11-21T11:37:47;12.30;93.60
22379;DHT22;11357;49.990;7.370;2023-11-21T11:40:13;12.40;93.50
22379;DHT22;11357;49.990;7.370;2023-11-21T11:42:58;12.50;93.50
22379;DHT22;11357;49.990;7.370;2023-11-21T11:45:32;12.60;93.30
22379;DHT22;11357;49.990;7.370;2023-11-21T12:11:20;12.90;92.40
22379;DHT22;11357;49.990;7.370;2023-11-21T12:13:45;12.80;92.40
22379;DHT22;11357;49.990;7.370;2023-11-21T12:16:11;12.80;92.30
22379;DHT22;11357;49.990;7.370;2023-11-21T12:18:43;12.80;92.50
22379;DHT22;11357;49.990;7.370;2023-11-21T12:21:09;12.70;92.50
22379;DHT22;11357;49.990;7.370;2023-11-21T12:23:35;12.70;92.40
22379;DHT22;11357;49.990;7.370;2023-11-21T12:26:01;12.60;92.40
22379;DHT22;11357;49.990;7.370;2023-11-21T12:28:33;12.60;92.50
22379;DHT22;11357;49.990;7.370;2023-11-21T12:30:59;12.60;92.40
22379;DHT22;11357;49.990;7.370;2023-11-21T12:33:25;12.60;92.30
22379;DHT22;11357;49.990;7.370;2023-11-21T12:35:51;12.60;92.00
22379;DHT22;11357;49.990;7.370;2023-11-21T13:32:47;13.00;90.60
22379;DHT22;11357;49.990;7.370;2023-11-21T13:35:15;13.00;90.70
22379;DHT22;11357;49.990;7.370;2023-11-21T13:38:04;13.00;90.70
22379;DHT22;11357;49.990;7.370;2023-11-21T13:40:32;12.90;90.80
22379;DHT22;11357;49.990;7.370;2023-11-21T13:43:00;12.90;90.80
22379;DHT22;11357;49.990;7.370;2023-11-21T13:45:29;12.70;90.80
22379;DHT22;11357;49.990;7.370;2023-11-21T13:48:02;12.60;91.00
22379;DHT22;11357;49.990;7.370;2023-11-21T13:50:30;12.60;91.10
22379;DHT22;11357;49.990;7.370;2023-11-21T13:53:01;12.60;91.10
22379;DHT22;11357;49.990;7.370;2023-11-21T13:55:44;12.70;91.20
22379;DHT22;11357;49.990;7.370;2023-11-21T14:03:50;12.70;91.20
22379;DHT22;11357;49.990;7.370;2023-11-21T14:06:22;12.80;91.10
22379;DHT22;11357;49.990;7.370;2023-11-21T14:11:51;12.70;91.20
22379;DHT22;11357;49.990;7.370;2023-11-21T14:14:31;12.50;91.20
22379;DHT22;11357;49.990;7.370;2023-11-21T14:16:57;12.50;91.30
22379;DHT22;11357;49.990;7.370;2023-11-21T14:19:24;12.40;91.30
22379;DHT22;11357;49.990;7.370;2023-11-21T14:21:55;12.40;91.40
22379;DHT22;11357;49.990;7.370;2023-11-21T14:24:21;12.40;91.40
22379;DHT22;11357;49.990;7.370;2023-11-21T14:26:49;12.40;91.40
22379;DHT22;11357;49.990;7.370;2023-11-21T14:29:18;12.40;91.50
22379;DHT22;11357;49.990;7.370;2023-11-21T14:31:49;12.40;91.50
22379;DHT22;11357;49.990;7.370;2023-11-21T14:34:17;12.40;91.50
22379;DHT22;11357;49.990;7.370;2023-11-21T14:36:43;12.40;91.60
22379;DHT22;11357;49.990;7.370;2023-11-21T14:39:10;12.40;91.50
22379;DHT22;11357;49.990;7.370;2023-11-21T14:41:48;12.40;91.60
22379;DHT22;11357;49.990;7.370;2023-11-21T14:44:14;12.40;91.60
22379;DHT22;11357;49.990;7.370;2023-11-21T14:46:41;12.30;91.60
22379;DHT22;11357;49.990;7.370;2023-11-21T14:49:11;12.30;91.70
22379;DHT22;11357;49.990;7.370;2023-11-21T14:51:51;12.30;91.80
22379;DHT22;11357;49.990;7.370;2023-11-21T14:54:32;12.20;91.80
22379;DHT22;11357;49.990;7.370;2023-11-21T14:57:11;12.20;91.90
22379;DHT22;11357;49.990;7.370;2023-11-21T14:59:47;12.20;91.90
22379;DHT22;11357;49.990;7.370;2023-11-21T15:02:16;12.10;92.00
22379;DHT22;11357;49.990;7.370;2023-11-21T15:04:44;12.10;92.00
22379;DHT22;11357;49.990;7.370;2023-11-21T15:07:10;12.10;92.10
22379;DHT22;11357;49.990;7.370;2023-11-21T15:09:39;12.00;92.10
22379;DHT22;11357;49.990;7.370;2023-11-21T15:12:08;11.90;92.20
22379;DHT22;11357;49.990;7.370;2023-11-21T15:14:47;11.90;92.30
22379;DHT22;11357;49.990;7.370;2023-11-21T15:17:15;11.80;92.40
22379;DHT22;11357;49.990;7.370;2023-11-21T15:20:02;11.80;92.50
22379;DHT22;11357;49.990;7.370;2023-11-21T15:22:29;11.70;92.50
22379;DHT22;11357;49.990;7.370;2023-11-21T15:24:55;11.70;92.60
22379;DHT22;11357;49.990;7.370;2023-11-21T15:27:21;11.60;92.80
22379;DHT22;11357;49.990;7.370;2023-11-21T15:29:47;11.60;92.90
22379;DHT22;11357;49.990;7.370;2023-11-21T15:32:15;11.60;93.00
22379;DHT22;11357;49.990;7.370;2023-11-21T15:34:41;11.60;93.10
22379;DHT22;11357;49.990;7.370;2023-11-21T15:37:07;11.50;93.10
22379;DHT22;11357;49.990;7.370;2023-11-21T15:39:36;11.50;93.20
22379;DHT22;11357;49.990;7.370;2023-11-21T15:42:02;11.50;93.40
22379;DHT22;11357;49.990;7.370;2023-11-21T15:44:29;11.40;93.40
22379;DHT22;11357;49.990;7.370;2023-11-21T15:46:57;11.40;93.60
22379;DHT22;11357;49.990;7.370;2023-11-21T15:49:23;11.40;93.60
22379;DHT22;11357;49.990;7.370;2023-11-21T15:51:49;11.40;93.70
22379;DHT22;11357;49.990;7.370;2023-11-21T15:54:25;11.30;93.70
22379;DHT22;11357;49.990;7.370;2023-11-21T15:56:53;11.30;93.80
22379;DHT22;11357;49.990;7.370;2023-11-21T15:59:21;11.30;93.80
22379;DHT22;11357;49.990;7.370;2023-11-21T16:01:49;11.30;93.80
22379;DHT22;11357;49.990;7.370;2023-11-21T16:04:15;11.30;93.80
22379;DHT22;11357;49.990;7.370;2023-11-21T16:06:46;11.30;93.80
22379;DHT22;11357;49.990;7.370;2023-11-21T16:09:13;11.30;93.80
22379;DHT22;11357;49.990;7.370;2023-11-21T16:12:00;11.30;93.80
22379;DHT22;11357;49.990;7.370;2023-11-21T16:14:34;11.30;93.90
22379;DHT22;11357;49.990;7.370;2023-11-21T16:17:02;11.30;93.90
22379;DHT22;11357;49.990;7.370;2023-11-21T16:19:28;11.30;93.90
22379;DHT22;11357;49.990;7.370;2023-11-21T16:21:53;11.30;93.90
22379;DHT22;11357;49.990;7.370;2023-11-21T16:24:19;11.30;94.00
22379;DHT22;11357;49.990;7.370;2023-11-21T16:26:48;11.30;94.00
22379;DHT22;11357;49.990;7.370;2023-11-21T16:29:14;11.30;94.00
22379;DHT22;11357;49.990;7.370;2023-11-21T16:31:40;11.30;94.10
22379;DHT22;11357;49.990;7.370;2023-11-21T16:34:22;11.30;94.20
22379;DHT22;11357;49.990;7.370;2023-11-21T16:36:48;11.30;94.20
22379;DHT22;11357;49.990;7.370;2023-11-21T16:39:18;11.20;94.20
22379;DHT22;11357;49.990;7.370;2023-11-21T16:41:47;11.30;94.20
22379;DHT22;11357;49.990;7.370;2023-11-21T16:44:22;11.30;94.20
22379;DHT22;11357;49.990;7.370;2023-11-21T16:46:51;11.30;94.30
22379;DHT22;11357;49.990;7.370;2023-11-21T16:49:25;11.30;94.20
22379;DHT22;11357;49.990;7.370;2023-11-21T16:51:52;11.30;94.20
22379;DHT22;11357;49.990;7.370;2023-11-21T16:54:19;11.30;94.20
22379;DHT22;11357;49.990;7.370;2023-11-21T16:56:45;11.30;94.30
22379;DHT22;11357;49.990;7.370;2023-11-21T16:59:11;11.30;94.30
22379;DHT22;11357;49.990;7.370;2023-11-21T17:01:37;11.30;94.40
22379;DHT22;11357;49.990;7.370;2023-11-21T17:04:03;11.30;94.40
22379;DHT22;11357;49.990;7.370;2023-11-21T17:06:29;11.30;94.40
22379;DHT22;11357;49.990;7.370;2023-11-21T17:08:57;11.30;94.40
22379;DHT22;11357;49.990;7.370;2023-11-21T17:11:26;11.30;94.40
22379;DHT22;11357;49.990;7.370;2023-11-21T17:13:52;11.30;94.40
22379;DHT22;11357;49.990;7.370;2023-11-21T17:16:18;11.30;94.50
22379;DHT22;11357;49.990;7.370;2023-11-21T17:18:44;11.30;94.60
22379;DHT22;11357;49.990;7.370;2023-11-21T17:21:09;11.40;94.60
22379;DHT22;11357;49.990;7.370;2023-11-21T17:23:36;11.40;94.50
22379;DHT22;11357;49.990;7.370;2023-11-21T17:26:02;11.30;94.50
22379;DHT22;11357;49.990;7.370;2023-11-21T17:28:27;11.30;94.50
22379;DHT22;11357;49.990;7.370;2023-11-21T17:30:53;11.40;94.50
22379;DHT22;11357;49.990;7.370;2023-11-21T17:33:19;11.40;94.50
22379;DHT22;11357;49.990;7.370;2023-11-21T17:35:45;11.40;94.50
22379;DHT22;11357;49.990;7.370;2023-11-21T17:38:11;11.30;94.50
22379;DHT22;11357;49.990;7.370;2023-11-21T17:40:40;11.40;94.50
22379;DHT22;11357;49.990;7.370;2023-11-21T17:43:05;11.30;94.50
22379;DHT22;11357;49.990;7.370;2023-11-21T17:45:32;11.30;94.60
22379;DHT22;11357;49.990;7.370;2023-11-21T17:47:58;11.40;94.60
22379;DHT22;11357;49.990;7.370;2023-11-21T17:50:23;11.30;94.60
22379;DHT22;11357;49.990;7.370;2023-11-21T17:52:49;11.30;94.60
22379;DHT22;11357;49.990;7.370;2023-11-21T17:55:15;11.30;94.60